Time;durP1;ratioP1;P1;durP2;ratioP2;P2;SDS_P1;SDS_P2;PMS_P1;PMS_P2;Temp;Humidity;BMP_temperature;BMP_pressure;BME280_temperature;BME280_humidity;BME280_pressure;Samples;Min_cycle;Max_cycle;Signal;HPM_P1;HPM_P2
2023/08/10 00:02:48;;;;;;;;;3.25;3.25;;;;;-143.90;88.53;75184.63;5006389;27;102989;-80
2023/08/10 00:05:43;;;;;;;;;2.75;2.75;;;;;-143.90;88.31;75180.50;5014850;27;102440;-79
2023/08/10 00:08:42;;;;;;;;;5.00;5.00;;;;;-143.90;87.34;75180.50;5013993;27;107907;-80
2023/08/10 00:11:42;;;;;;;;;4.75;3.00;;;;;-143.90;87.79;75182.56;5018370;27;102163;-80
2023/08/10 00:14:32;;;;;;;;;1.75;1.75;;;;;-143.90;87.79;75184.63;5016893;27;102519;-80
2023/08/10 00:17:21;;;;;;;;;5.25;3.50;;;;;-143.90;88.07;75186.69;5019057;27;102154;-80
2023/08/10 00:20:10;;;;;;;;;4.25;4.25;;;;;-143.90;88.18;75192.91;5017738;27;107689;-80
2023/08/10 00:22:38;;;;;;;;;7.50;6.00;;;;;-143.90;87.76;75188.75;5019736;27;102030;-80
2023/08/10 00:25:06;;;;;;;;;8.00;7.00;;;;;-143.90;87.05;75190.81;5023789;27;102048;-80
2023/08/10 00:27:38;;;;;;;;;13.00;11.00;;;;;-143.90;86.62;75199.09;5020861;27;102035;-79
2023/08/10 00:30:09;;;;;;;;;8.50;8.00;;;;;-143.90;87.07;75203.22;5015579;27;104234;-80
2023/08/10 00:32:36;;;;;;;;;7.25;6.75;;;;;-143.90;87.77;75201.16;5013948;27;103309;-80
2023/08/10 00:35:04;;;;;;;;;4.00;3.00;;;;;-143.90;88.52;75211.50;5022540;27;103037;-80
2023/08/10 00:37:31;;;;;;;;;12.75;10.50;;;;;-143.90;88.93;75225.97;5018742;27;103007;-80
2023/08/10 00:39:58;;;;;;;;;5.25;5.25;;;;;-143.90;88.51;75223.91;5017203;27;104032;-80
2023/08/10 00:42:25;;;;;;;;;12.75;9.25;;;;;-143.90;89.53;75234.25;5020454;27;102486;-79
2023/08/10 00:44:52;;;;;;;;;7.00;6.50;;;;;-143.90;89.79;75234.25;5022716;27;103356;-79
2023/08/10 00:47:19;;;;;;;;;5.25;5.25;;;;;-143.90;89.12;75225.97;5009706;27;102090;-79
2023/08/10 00:49:48;;;;;;;;;4.50;3.25;;;;;-143.90;88.81;75221.84;5006339;27;104111;-80
2023/08/10 00:52:15;;;;;;;;;10.75;9.75;;;;;-143.90;88.51;75221.84;5017213;27;102301;-79
2023/08/10 00:54:43;;;;;;;;;16.25;12.75;;;;;-143.90;88.83;75234.25;5009987;27;105440;-79
2023/08/10 00:57:11;;;;;;;;;7.50;6.50;;;;;-143.90;89.22;75228.03;5009625;27;103479;-79
2023/08/10 00:59:38;;;;;;;;;10.50;10.50;;;;;-143.90;89.80;75250.78;5008348;27;104036;-79
2023/08/10 01:02:08;;;;;;;;;6.25;5.00;;;;;-143.90;90.05;75250.78;5003697;27;102439;-79
2023/08/10 01:04:49;;;;;;;;;6.50;6.00;;;;;-143.90;90.43;75248.72;5008257;27;102194;-80
2023/08/10 01:08:07;;;;;;;;;4.00;4.00;;;;;-143.90;90.55;75259.06;5004748;27;105252;-80
2023/08/10 01:10:57;;;;;;;;;3.25;3.00;;;;;-143.90;90.88;75246.66;5013172;27;107831;-80
2023/08/10 01:14:12;;;;;;;;;3.50;3.50;;;;;-143.90;91.30;75252.84;5008563;27;103531;-80
2023/08/10 01:16:57;;;;;;;;;6.00;4.00;;;;;-143.90;91.04;75254.91;5009924;27;102262;-80
2023/08/10 01:19:55;;;;;;;;;4.25;4.00;;;;;-143.90;90.22;75250.78;5017056;27;102345;-80
2023/08/10 01:22:37;;;;;;;;;7.25;6.25;;;;;-143.90;90.48;75250.78;5017122;27;104840;-79
2023/08/10 01:25:06;;;;;;;;;3.00;3.00;;;;;-143.90;89.88;75250.78;5023211;27;102666;-80
2023/08/10 01:27:34;;;;;;;;;6.00;4.75;;;;;-143.90;89.87;75248.72;5016982;27;101993;-80
2023/08/10 01:30:04;;;;;;;;;7.75;7.75;;;;;-143.90;89.02;75263.19;5017324;27;102120;-80
2023/08/10 01:32:42;;;;;;;;;9.25;8.50;;;;;-143.90;89.34;75275.59;5017967;27;108464;-80
2023/08/10 01:35:10;;;;;;;;;2.75;2.75;;;;;-143.90;89.26;75273.53;5004254;27;102316;-80
2023/08/10 01:37:37;;;;;;;;;4.00;4.00;;;;;-143.90;90.40;75267.31;5014873;27;102559;-80
2023/08/10 01:40:13;;;;;;;;;4.00;3.00;;;;;-143.90;90.71;75259.06;5013513;27;102272;-80
2023/08/10 01:42:57;;;;;;;;;1.75;1.75;;;;;-143.90;90.16;75259.06;5014937;27;103245;-80
2023/08/10 01:45:24;;;;;;;;;3.50;2.75;;;;;-143.90;90.64;75259.06;5020311;27;101986;-80
2023/08/10 01:48:00;;;;;;;;;3.75;3.75;;;;;-143.90;90.24;75259.06;4987367;27;104882;-80
2023/08/10 01:50:32;;;;;;;;;4.25;2.50;;;;;-143.90;90.36;75263.19;4976712;27;102440;-80
2023/08/10 01:53:04;;;;;;;;;3.50;3.25;;;;;-143.90;89.95;75259.06;5015218;27;103992;-80
2023/08/10 01:55:31;;;;;;;;;7.00;5.75;;;;;-143.90;90.13;75271.47;4996712;27;102126;-80
2023/08/10 01:57:59;;;;;;;;;3.25;3.00;;;;;-143.90;90.34;75269.38;5021094;27;101941;-79
2023/08/10 02:00:26;;;;;;;;;3.00;2.00;;;;;-143.90;89.28;75275.59;5026707;27;102220;-80
2023/08/10 02:02:53;;;;;;;;;3.50;2.25;;;;;-143.90;89.60;75285.94;5019968;27;103981;-80
2023/08/10 02:05:23;;;;;;;;;4.75;3.75;;;;;-143.90;89.61;75279.72;5019512;27;102876;-79
2023/08/10 02:07:50;;;;;;;;;5.00;4.75;;;;;-143.90;89.58;75275.59;5033261;27;102242;-80
2023/08/10 02:10:17;;;;;;;;;5.00;5.00;;;;;-143.90;89.32;75273.53;5026928;27;102033;-80
2023/08/10 02:12:45;;;;;;;;;4.25;4.00;;;;;-143.90;89.20;75273.53;5026599;27;104042;-80
2023/08/10 02:15:12;;;;;;;;;5.00;5.00;;;;;-143.90;88.97;75279.72;5021397;27;103489;-80
2023/08/10 02:17:40;;;;;;;;;3.00;2.25;;;;;-143.90;89.13;75279.72;5014954;27;102002;-80
2023/08/10 02:20:22;;;;;;;;;1.50;1.50;;;;;-143.90;89.42;75271.47;5023781;27;102494;-80
2023/08/10 02:23:35;;;;;;;;;6.00;5.00;;;;;-143.90;89.44;75271.47;5023797;27;108052;-80
2023/08/10 02:26:21;;;;;;;;;5.25;5.00;;;;;-143.90;89.01;75265.25;5014978;27;102923;-80
2023/08/10 02:28:48;;;;;;;;;2.00;2.00;;;;;-143.90;88.84;75261.13;5022974;27;104147;-80
2023/08/10 02:31:15;;;;;;;;;4.25;2.75;;;;;-143.90;88.75;75265.25;5018190;27;102295;-80
2023/08/10 02:33:43;;;;;;;;;3.00;3.00;;;;;-143.90;88.53;75267.31;5021787;27;104368;-80
2023/08/10 02:36:10;;;;;;;;;3.75;3.00;;;;;-143.90;88.85;75267.31;5020275;27;102013;-80
2023/08/10 02:38:37;;;;;;;;;2.50;2.00;;;;;-143.90;88.73;75263.19;5015707;27;102242;-80
2023/08/10 02:41:04;;;;;;;;;1.00;1.00;;;;;-143.90;88.36;75271.47;5023039;27;103432;-80
2023/08/10 02:43:32;;;;;;;;;2.00;0.75;;;;;-143.90;88.18;75265.25;5018238;27;111907;-80
2023/08/10 02:45:59;;;;;;;;;3.75;3.00;;;;;-143.90;88.15;75267.31;5022421;27;102259;-80
2023/08/10 02:48:26;;;;;;;;;4.25;3.00;;;;;-143.90;87.51;75273.53;5021048;27;102486;-80
2023/08/10 02:50:53;;;;;;;;;4.00;3.25;;;;;-143.90;88.34;75271.47;5021794;27;101984;-80
2023/08/10 02:53:20;;;;;;;;;1.50;1.50;;;;;-143.90;88.48;75279.72;5021342;27;104120;-80
2023/08/10 02:55:47;;;;;;;;;1.75;1.50;;;;;-143.90;88.34;75277.66;5016466;27;102097;-80
2023/08/10 02:58:36;;;;;;;;;0.00;0.00;;;;;-143.90;89.04;75283.84;5017272;27;101975;-79
2023/08/10 03:01:29;;;;;;;;;1.00;1.00;;;;;-143.90;89.16;75281.78;5021750;27;101971;-80
2023/08/10 03:04:17;;;;;;;;;2.50;2.50;;;;;-143.90;89.54;75283.84;5019294;27;107624;-80
2023/08/10 03:06:44;;;;;;;;;4.00;4.00;;;;;-143.90;88.95;75288.00;5010067;27;102151;-80
2023/08/10 03:09:13;;;;;;;;;2.50;2.50;;;;;-143.90;88.76;75283.84;5030087;27;102349;-80
2023/08/10 03:11:40;;;;;;;;;1.50;1.50;;;;;-143.90;87.79;75300.41;5022217;27;103192;-80
2023/08/10 03:14:07;;;;;;;;;3.25;3.00;;;;;-143.90;88.67;75304.53;5025934;27;104024;-80
2023/08/10 03:16:35;;;;;;;;;2.50;2.00;;;;;-143.90;89.47;75310.75;5021273;27;102203;-80
2023/08/10 03:19:02;;;;;;;;;1.50;1.50;;;;;-143.90;90.38;75316.94;5018760;27;102267;-80
2023/08/10 03:21:29;;;;;;;;;1.50;1.00;;;;;-143.90;90.67;75312.81;5030030;27;102104;-80
2023/08/10 03:23:57;;;;;;;;;1.25;1.25;;;;;-143.90;90.52;75302.47;5021242;27;105798;-80
2023/08/10 03:26:24;;;;;;;;;2.25;2.25;;;;;-143.90;90.92;75296.25;5025306;27;102126;-80
2023/08/10 03:29:10;;;;;;;;;3.00;3.00;;;;;-143.90;90.92;75285.94;5025168;27;102803;-80
2023/08/10 03:31:42;;;;;;;;;3.00;2.00;;;;;-143.90;90.06;75308.66;5017552;27;102484;-80
2023/08/10 03:34:10;;;;;;;;;3.75;2.25;;;;;-143.90;90.72;75312.81;5011890;27;108570;-80
2023/08/10 03:36:47;;;;;;;;;2.25;2.00;;;;;-143.90;90.46;75308.66;5021109;27;103445;-80
2023/08/10 03:39:16;;;;;;;;;2.00;2.00;;;;;-143.90;90.75;75308.66;5014197;27;102351;-80
2023/08/10 03:41:47;;;;;;;;;1.75;1.50;;;;;-143.90;90.34;75302.47;5017119;27;102566;-80
2023/08/10 03:44:29;;;;;;;;;1.00;1.00;;;;;-143.90;90.98;75296.25;5018973;27;102785;-80
2023/08/10 03:46:56;;;;;;;;;1.00;0.50;;;;;-143.90;90.79;75292.13;5020152;27;102346;-80
2023/08/10 03:49:24;;;;;;;;;1.50;1.50;;;;;-143.90;90.52;75294.19;5003649;27;102270;-80
2023/08/10 03:51:51;;;;;;;;;2.00;2.00;;;;;-143.90;89.84;75288.00;5018145;27;102394;-80
2023/08/10 03:54:27;;;;;;;;;2.50;2.00;;;;;-143.90;89.87;75283.84;5016080;27;105083;-80
2023/08/10 03:56:54;;;;;;;;;1.00;0.00;;;;;-143.90;89.55;75283.84;5023457;27;102869;-80
2023/08/10 03:59:21;;;;;;;;;1.00;1.00;;;;;-143.90;89.77;75277.66;5019380;27;102178;-81
2023/08/10 04:01:49;;;;;;;;;2.50;2.50;;;;;-143.90;89.09;75277.66;5020630;27;102235;-80
2023/08/10 04:04:16;;;;;;;;;2.00;2.00;;;;;-143.90;88.93;75275.59;5019120;27;104083;-80
2023/08/10 04:06:45;;;;;;;;;2.00;1.00;;;;;-143.90;89.02;75271.47;4890962;27;102508;-80
2023/08/10 04:09:54;;;;;;;;;0.00;0.00;;;;;-143.90;88.67;75269.38;4889965;27;103010;-81
2023/08/10 04:12:20;;;;;;;;;1.00;1.00;;;;;-143.90;88.48;75269.38;4967632;27;104044;-80
2023/08/10 04:14:47;;;;;;;;;1.00;1.00;;;;;-143.90;87.99;75269.38;5022122;27;104806;-80
2023/08/10 04:17:17;;;;;;;;;2.00;2.00;;;;;-143.90;88.23;75269.38;5017617;27;102075;-80
2023/08/10 04:19:44;;;;;;;;;2.00;1.75;;;;;-143.90;87.99;75273.53;4992999;27;110476;-79
2023/08/10 04:22:13;;;;;;;;;2.00;2.00;;;;;-143.90;87.98;75271.47;5008659;27;103357;-80
2023/08/10 04:24:40;;;;;;;;;4.00;2.00;;;;;-143.90;88.21;75269.38;5016662;27;104089;-80
2023/08/10 04:27:08;;;;;;;;;1.75;1.00;;;;;-143.90;88.02;75273.53;5025436;27;102131;-82
2023/08/10 04:29:35;;;;;;;;;1.75;1.75;;;;;-143.90;88.36;75275.59;5023053;27;102250;-79
2023/08/10 04:32:02;;;;;;;;;1.00;1.00;;;;;-143.90;87.84;75265.25;5017281;27;102501;-80
2023/08/10 04:34:32;;;;;;;;;4.75;3.00;;;;;-143.90;86.83;75271.47;5015845;27;104186;-79
2023/08/10 04:36:59;;;;;;;;;3.25;2.00;;;;;-143.90;87.58;75308.66;5016600;27;102422;-79
2023/08/10 04:39:27;;;;;;;;;3.00;3.00;;;;;-143.90;89.28;75325.22;5014529;27;102331;-79
2023/08/10 04:41:54;;;;;;;;;5.00;5.00;;;;;-143.90;89.64;75333.47;5023366;27;102288;-79
2023/08/10 04:44:23;;;;;;;;;4.00;3.00;;;;;-143.90;90.51;75345.88;5007180;27;104266;-80
2023/08/10 04:46:50;;;;;;;;;3.00;2.00;;;;;-143.90;90.89;75347.94;5017595;27;102372;-80
2023/08/10 04:49:17;;;;;;;;;3.25;1.75;;;;;-143.90;90.87;75335.53;5014648;27;102664;-80
2023/08/10 04:51:44;;;;;;;;;2.20;1.20;;;;;-143.90;91.33;75331.41;4668452;27;10000617;-80
2023/08/10 04:54:14;;;;;;;;;3.25;2.50;;;;;-143.90;90.85;75350.03;5007412;27;103285;-79
2023/08/10 04:56:41;;;;;;;;;4.00;4.00;;;;;-143.90;90.13;75354.16;5007165;27;108730;-79
2023/08/10 04:59:08;;;;;;;;;5.25;5.00;;;;;-143.90;90.69;75358.28;5014739;27;101839;-79
2023/08/10 05:01:35;;;;;;;;;2.50;2.50;;;;;-143.90;90.53;75343.81;5008265;27;102052;-79
2023/08/10 05:04:03;;;;;;;;;1.50;1.50;;;;;-143.90;90.41;75337.63;5017374;27;103304;-79
2023/08/10 05:06:31;;;;;;;;;1.00;1.00;;;;;-143.90;90.22;75333.47;5010677;27;104128;-79
2023/08/10 05:08:58;;;;;;;;;0.75;0.75;;;;;-143.90;90.15;75327.28;5021946;27;102149;-79
2023/08/10 05:11:25;;;;;;;;;0.00;0.00;;;;;-143.90;89.91;75323.16;5007434;27;102372;-79
2023/08/10 05:13:54;;;;;;;;;1.00;1.00;;;;;-143.90;88.96;75343.81;5021021;27;102333;-79
2023/08/10 05:16:21;;;;;;;;;4.00;4.00;;;;;-143.90;89.80;75335.53;5014282;27;104026;-79
2023/08/10 05:18:50;;;;;;;;;3.00;3.00;;;;;-143.90;89.83;75333.47;5020640;27;102370;-78
2023/08/10 05:21:17;;;;;;;;;1.00;1.00;;;;;-143.90;90.53;75325.22;5037540;27;102424;-79
2023/08/10 05:23:48;;;;;;;;;2.75;2.75;;;;;-143.90;90.46;75321.06;5011763;27;102932;-79
2023/08/10 05:26:19;;;;;;;;;3.50;3.50;;;;;-143.90;90.47;75312.81;5011623;27;104022;-79
2023/08/10 05:28:46;;;;;;;;;3.50;3.50;;;;;-143.90;90.12;75306.59;5013907;27;101895;-79
2023/08/10 05:31:14;;;;;;;;;13.00;11.50;;;;;-143.90;88.47;75316.94;4999935;27;102204;-79
2023/08/10 05:33:42;;;;;;;;;9.00;5.00;;;;;-143.90;88.79;75319.00;5010033;27;102767;-79
2023/08/10 05:36:16;;;;;;;;;11.25;9.00;;;;;-143.90;89.68;75321.06;5017206;27;103175;-79
2023/08/10 05:38:43;;;;;;;;;4.25;4.00;;;;;-143.90;89.04;75321.06;5016595;27;102548;-80
2023/08/10 05:41:10;;;;;;;;;3.00;3.00;;;;;-143.90;89.63;75308.66;5020510;27;102129;-79
2023/08/10 05:43:37;;;;;;;;;1.25;1.25;;;;;-143.90;89.78;75304.53;5022120;27;102947;-79
2023/08/10 05:46:07;;;;;;;;;1.00;1.00;;;;;-143.90;89.77;75308.66;5034803;27;104044;-79
2023/08/10 05:48:34;;;;;;;;;3.75;2.00;;;;;-143.90;88.86;75304.53;5014097;27;102669;-79
2023/08/10 05:51:01;;;;;;;;;3.00;2.75;;;;;-143.90;88.40;75306.59;5021338;27;101972;-80
2023/08/10 05:53:29;;;;;;;;;6.50;6.50;;;;;-143.90;88.11;75308.66;5026513;27;102488;-79
2023/08/10 05:56:01;;;;;;;;;4.50;4.00;;;;;-143.90;87.60;75312.81;4996894;27;104079;-80
2023/08/10 05:58:28;;;;;;;;;4.50;4.00;;;;;-143.90;88.28;75310.75;5016759;27;102215;-80
2023/08/10 06:00:56;;;;;;;;;4.00;2.25;;;;;-143.90;89.64;75296.25;5011516;27;102074;-80
2023/08/10 06:03:23;;;;;;;;;7.50;6.00;;;;;-143.90;89.09;75288.00;5014845;27;102728;-79
2023/08/10 06:05:51;;;;;;;;;4.25;4.00;;;;;-143.90;88.50;75283.84;5013230;27;108974;-79
2023/08/10 06:08:18;;;;;;;;;3.25;3.25;;;;;-143.90;88.45;75271.47;5020049;27;102059;-80
2023/08/10 06:10:49;;;;;;;;;2.50;2.00;;;;;-143.90;88.35;75265.25;5022176;27;101947;-80
2023/08/10 06:13:18;;;;;;;;;8.75;7.00;;;;;-143.90;87.94;75250.78;5025998;27;101988;-80
2023/08/10 06:15:48;;;;;;;;;5.50;4.75;;;;;-143.90;87.55;75236.31;5021793;27;104153;-80
2023/08/10 06:18:16;;;;;;;;;3.25;3.25;;;;;-143.90;87.29;75230.09;4990792;27;102268;-80
2023/08/10 06:20:44;;;;;;;;;6.75;6.00;;;;;-143.90;87.02;75234.25;5026577;27;102599;-79
2023/08/10 06:23:12;;;;;;;;;8.00;6.50;;;;;-143.90;86.78;75221.84;5025035;27;102211;-80
2023/08/10 06:25:40;;;;;;;;;7.25;6.25;;;;;-143.90;85.98;75246.66;5020344;27;104237;-80
2023/08/10 06:28:09;;;;;;;;;6.00;5.00;;;;;-143.90;86.79;75244.59;5021192;27;102374;-80
2023/08/10 06:30:36;;;;;;;;;4.00;4.00;;;;;-143.90;86.89;75234.25;5022620;27;101984;-80
2023/08/10 06:33:07;;;;;;;;;4.00;3.75;;;;;-143.90;86.74;75238.38;5018549;27;102254;-80
2023/08/10 06:35:35;;;;;;;;;3.00;3.00;;;;;-143.90;87.05;75219.78;5015812;27;103991;-80
2023/08/10 06:38:05;;;;;;;;;2.00;2.00;;;;;-143.90;87.07;75203.22;5023084;27;102307;-80
2023/08/10 06:40:33;;;;;;;;;3.25;2.50;;;;;-143.90;86.68;75194.97;5020701;27;101947;-80
2023/08/10 06:43:03;;;;;;;;;8.75;7.50;;;;;-143.90;83.54;75201.16;5012584;27;102428;-80
2023/08/10 06:45:30;;;;;;;;;5.00;4.00;;;;;-143.90;85.37;75161.88;5030200;27;104148;-80
2023/08/10 06:47:57;;;;;;;;;4.00;3.50;;;;;-143.90;84.63;75143.28;5026841;27;105118;-79
2023/08/10 06:50:24;;;;;;;;;5.25;3.25;;;;;-143.90;83.61;75141.22;5028593;27;102085;-80
2023/08/10 06:52:52;;;;;;;;;4.75;3.00;;;;;-143.90;82.96;75132.94;5021191;27;101974;-79
2023/08/10 06:55:20;;;;;;;;;5.00;4.75;;;;;-143.90;82.24;75128.81;5024016;27;104012;-80
2023/08/10 06:57:50;;;;;;;;;4.25;3.25;;;;;-143.90;82.36;75118.47;5013069;27;102320;-79
2023/08/10 07:00:21;;;;;;;;;4.25;3.00;;;;;-143.90;81.98;75106.06;5017613;27;102106;-80
2023/08/10 07:02:54;;;;;;;;;5.25;5.00;;;;;-143.90;82.48;75099.88;5025754;27;102212;-81
2023/08/10 07:05:25;;;;;;;;;10.25;8.75;;;;;-143.90;80.68;75143.28;5021957;27;104039;-80
2023/08/10 07:07:54;;;;;;;;;5.00;5.00;;;;;-143.90;82.34;75128.81;5018069;27;102370;-79
2023/08/10 07:10:22;;;;;;;;;5.00;3.00;;;;;-143.90;82.14;75122.59;5006403;27;102369;-80
2023/08/10 07:12:50;;;;;;;;;8.00;7.00;;;;;-143.90;81.33;75118.47;4981667;27;102092;-80
2023/08/10 07:15:17;;;;;;;;;4.50;4.50;;;;;-143.90;81.38;75114.34;5011796;27;104048;-80
2023/08/10 07:17:44;;;;;;;;;6.25;5.00;;;;;-143.90;80.96;75101.94;4994702;27;102513;-80
2023/08/10 07:20:18;;;;;;;;;7.25;5.75;;;;;-143.90;80.97;75104.00;5018999;27;102077;-80
2023/08/10 07:22:47;;;;;;;;;5.50;4.75;;;;;-143.90;79.96;75114.34;5027953;27;102296;-80
2023/08/10 07:25:17;;;;;;;;;7.75;6.50;;;;;-143.90;79.85;75114.34;5017291;27;104440;-80
2023/08/10 07:27:46;;;;;;;;;4.50;3.25;;;;;-143.90;80.51;75104.00;5005769;27;102407;-80
2023/08/10 07:30:14;;;;;;;;;4.75;4.75;;;;;-143.90;80.42;75101.94;5016473;27;102828;-80
2023/08/10 07:32:42;;;;;;;;;6.75;6.25;;;;;-143.90;78.99;75085.38;5019586;27;102470;-81
2023/08/10 07:35:11;;;;;;;;;5.75;5.00;;;;;-143.90;78.47;75068.84;4991761;27;103861;-80
2023/08/10 07:37:41;;;;;;;;;4.00;3.00;;;;;-143.90;78.15;75056.44;5025659;27;102214;-80
2023/08/10 07:40:11;;;;;;;;;7.00;6.75;;;;;-143.90;77.42;75077.13;5011714;27;102086;-80
2023/08/10 07:42:38;;;;;;;;;5.50;4.75;;;;;-143.90;76.71;75106.06;5026281;27;102280;-80
2023/08/10 07:45:09;;;;;;;;;7.50;6.00;;;;;-143.90;77.73;75064.72;4972804;27;104040;-80
2023/08/10 07:47:37;;;;;;;;;3.33;3.00;;;;;-143.90;77.59;75044.03;5013929;27;102419;-81
2023/08/10 07:50:06;;;;;;;;;5.00;5.00;;;;;-143.90;76.40;75015.09;5013671;27;102049;-81
2023/08/10 07:52:33;;;;;;;;;6.00;5.00;;;;;-143.90;76.11;74990.28;5025707;27;102347;-81
2023/08/10 07:55:00;;;;;;;;;12.50;9.50;;;;;-143.90;75.57;74973.75;5018634;27;104187;-81
2023/08/10 07:57:30;;;;;;;;;8.33;7.33;;;;;-143.90;75.15;74953.09;5025360;27;102186;-81
2023/08/10 08:00:00;;;;;;;;;5.33;5.33;;;;;-143.90;75.80;74899.34;5019956;27;102644;-81
2023/08/10 08:02:28;;;;;;;;;5.67;5.00;;;;;-143.90;73.17;74862.13;4999089;27;102386;-82
2023/08/10 08:04:55;;;;;;;;;6.00;6.00;;;;;-143.90;71.92;74824.91;5001313;27;104049;-81
2023/08/10 08:07:25;;;;;;;;;6.00;5.00;;;;;-143.90;71.50;74789.78;4991148;28;102045;-82
2023/08/10 08:09:52;;;;;;;;;8.67;7.67;;;;;-143.90;70.37;74771.16;5015380;27;102306;-81
2023/08/10 08:12:22;;;;;;;;;5.00;5.00;;;;;-143.90;69.03;74767.03;4996402;28;102251;-83
2023/08/10 08:14:53;;;;;;;;;7.00;6.33;;;;;-143.90;68.62;74767.03;5001841;27;104050;-83
2023/08/10 08:17:21;;;;;;;;;9.00;7.00;;;;;-143.90;67.94;74802.16;4997366;27;102220;-82
2023/08/10 08:19:55;;;;;;;;;7.00;6.00;;;;;-143.90;68.54;74795.97;4993741;27;102199;-81
2023/08/10 08:22:23;;;;;;;;;7.00;7.00;;;;;-143.90;68.92;74762.91;5002438;27;101924;-81
2023/08/10 08:24:53;;;;;;;;;7.00;7.00;;;;;-143.90;65.66;74754.63;4987634;28;104008;-81
2023/08/10 08:27:22;;;;;;;;;6.00;5.67;;;;;-143.90;66.97;74742.22;4988473;28;102422;-82
2023/08/10 08:29:49;;;;;;;;;8.00;7.00;;;;;-143.90;65.74;74736.03;5001762;27;102538;-82
2023/08/10 08:32:16;;;;;;;;;5.67;5.00;;;;;-143.90;66.40;74723.63;4995900;27;104564;-81
2023/08/10 08:35:03;;;;;;;;;7.00;6.67;;;;;-143.90;65.59;74717.41;5002212;28;108655;-83
2023/08/10 08:37:34;;;;;;;;;8.33;7.00;;;;;-143.90;64.47;74707.09;5004529;28;102454;-81
2023/08/10 08:40:01;;;;;;;;;12.00;12.00;;;;;-143.90;66.46;74725.69;4982317;27;102162;-82
2023/08/10 08:42:29;;;;;;;;;8.00;7.00;;;;;-143.90;64.35;74709.16;5001671;28;102232;-82
2023/08/10 08:44:56;;;;;;;;;6.00;6.00;;;;;-143.90;65.69;74696.75;5003234;27;104072;-82
2023/08/10 08:47:25;;;;;;;;;6.67;6.00;;;;;-143.90;64.97;74667.81;4938972;28;102480;-83
2023/08/10 08:49:56;;;;;;;;;6.00;6.00;;;;;-143.90;63.54;74659.53;4984301;27;102469;-83
2023/08/10 08:52:23;;;;;;;;;11.00;7.67;;;;;-143.90;64.33;74667.81;5004417;27;102223;-82
2023/08/10 08:54:52;;;;;;;;;7.00;7.00;;;;;-143.90;62.59;74674.00;4971585;27;104162;-82
2023/08/10 08:57:23;;;;;;;;;5.00;4.00;;;;;-143.90;62.51;74659.53;4996452;27;102071;-82
2023/08/10 08:59:50;;;;;;;;;7.00;6.67;;;;;-143.90;63.94;74663.66;4999162;27;102064;-82
2023/08/10 09:02:17;;;;;;;;;6.00;5.00;;;;;-143.90;63.03;74655.41;4995191;27;101916;-82
2023/08/10 09:04:48;;;;;;;;;8.67;6.00;;;;;-143.90;60.75;74661.59;4987412;27;104036;-84
2023/08/10 09:07:15;;;;;;;;;4.00;4.00;;;;;-143.90;59.85;74647.13;4985590;28;102494;-81
2023/08/10 09:09:46;;;;;;;;;6.00;6.00;;;;;-143.90;59.84;74653.34;4998339;27;102127;-81
2023/08/10 09:12:31;;;;;;;;;7.33;6.00;;;;;-143.90;61.46;74643.00;4995534;27;102065;-84
2023/08/10 09:15:06;;;;;;;;;6.67;6.00;;;;;-143.90;61.50;74647.13;5004316;28;104004;-82
2023/08/10 09:17:39;;;;;;;;;8.33;7.67;;;;;-143.90;59.92;74659.53;5003643;27;102228;-82
2023/08/10 09:20:08;;;;;;;;;5.00;5.00;;;;;-143.90;61.81;74640.94;5001713;27;105010;-83
2023/08/10 09:22:38;;;;;;;;;4.33;4.33;;;;;-143.90;60.15;74651.28;4948976;28;102122;-83
2023/08/10 09:25:06;;;;;;;;;6.33;6.00;;;;;-143.90;61.64;74663.66;4990197;27;103998;-83
2023/08/10 09:27:34;;;;;;;;;5.67;5.67;;;;;-143.90;61.24;74663.66;4992899;27;102084;-81
2023/08/10 09:30:04;;;;;;;;;4.00;4.00;;;;;-143.90;62.14;74638.88;4998706;27;102356;-84
2023/08/10 09:32:34;;;;;;;;;11.67;11.00;;;;;-143.90;57.58;74616.13;4988489;27;103968;-82
2023/08/10 09:35:02;;;;;;;;;5.67;5.00;;;;;-143.90;58.08;74620.25;4982524;28;104114;-82
2023/08/10 09:37:30;;;;;;;;;5.67;5.67;;;;;-143.90;56.63;74609.94;5000158;27;102184;-82
2023/08/10 09:40:04;;;;;;;;;3.67;3.67;;;;;-143.90;54.75;74578.91;4997115;27;102153;-83
2023/08/10 09:42:31;;;;;;;;;6.33;6.00;;;;;-143.90;54.96;74543.78;4992090;27;102461;-84
2023/08/10 09:45:04;;;;;;;;;11.33;9.67;;;;;-143.90;53.83;74564.44;5000970;27;103978;-83
2023/08/10 09:47:38;;;;;;;;;7.67;7.67;;;;;-143.90;54.89;74554.13;4964174;28;102255;-83
2023/08/10 09:50:12;;;;;;;;;7.00;6.33;;;;;-143.90;55.26;74537.56;5000447;27;102087;-83
2023/08/10 09:52:40;;;;;;;;;6.33;5.67;;;;;-143.90;51.95;74512.78;4990283;27;102250;-84
2023/08/10 09:55:09;;;;;;;;;6.00;6.00;;;;;-143.90;55.56;74512.78;5010347;27;108574;-84
2023/08/10 09:57:44;;;;;;;;;3.33;3.33;;;;;-143.90;56.34;74473.50;5000689;27;102108;-82
2023/08/10 10:00:19;;;;;;;;;7.00;5.67;;;;;-143.90;52.53;74512.78;4997695;27;102299;-82
2023/08/10 10:02:48;;;;;;;;;5.33;5.33;;;;;-143.90;54.14;74585.13;4995848;27;102074;-83
2023/08/10 10:05:18;;;;;;;;;4.00;4.00;;;;;-143.90;54.51;74593.38;4995914;28;104026;-82
2023/08/10 10:08:06;;;;;;;;;6.00;5.00;;;;;-143.90;53.18;74630.59;4994878;27;102270;-83
2023/08/10 10:10:35;;;;;;;;;5.67;5.67;;;;;-143.90;55.31;74595.47;4990188;27;102173;-84
2023/08/10 10:13:05;;;;;;;;;5.67;5.67;;;;;-143.90;52.58;74599.59;5003085;27;106026;-84
2023/08/10 10:15:36;;;;;;;;;6.00;5.33;;;;;-143.90;52.12;74597.53;5001315;27;102749;-83
2023/08/10 10:18:04;;;;;;;;;7.00;7.00;;;;;-143.90;50.27;74562.38;5001552;28;102062;-83
2023/08/10 10:20:37;;;;;;;;;6.33;6.00;;;;;-143.90;49.57;74558.25;4966172;28;102382;-82
2023/08/10 10:23:18;;;;;;;;;5.00;5.00;;;;;-143.90;49.45;74541.72;4999833;27;102601;-84
2023/08/10 10:25:57;;;;;;;;;3.33;3.33;;;;;-143.90;46.59;74502.44;4935228;28;108906;-83
2023/08/10 10:28:24;;;;;;;;;8.00;8.00;;;;;-143.90;45.38;74558.25;4996322;28;103768;-84
2023/08/10 10:31:10;;;;;;;;;7.67;7.67;;;;;-143.90;46.74;74566.53;4986374;27;102308;-85
2023/08/10 10:33:55;;;;;;;;;5.33;5.33;;;;;-143.90;46.91;74527.25;5002897;28;102062;-83
2023/08/10 10:36:23;;;;;;;;;4.67;4.67;;;;;-143.90;45.98;74512.78;5006876;27;108913;-82
2023/08/10 10:39:08;;;;;;;;;3.33;3.00;;;;;-143.90;47.11;74502.44;5003067;27;102119;-82
2023/08/10 10:41:41;;;;;;;;;3.00;3.00;;;;;-143.90;46.05;74494.16;5003919;27;102040;-83
2023/08/10 10:44:09;;;;;;;;;5.00;4.00;;;;;-143.90;47.88;74508.63;4975025;27;102118;-82
2023/08/10 10:46:40;;;;;;;;;3.00;3.00;;;;;-143.90;47.39;74514.84;4988905;27;104455;-82
2023/08/10 10:49:14;;;;;;;;;3.00;3.00;;;;;-143.90;46.95;74523.09;4982566;28;102316;-84
2023/08/10 10:52:00;;;;;;;;;3.00;3.00;;;;;-143.90;48.82;74518.97;4988405;28;102423;-83
2023/08/10 10:54:33;;;;;;;;;2.00;2.00;;;;;-143.90;48.40;74494.16;5006100;27;102333;-82
2023/08/10 10:57:01;;;;;;;;;2.00;2.00;;;;;-143.90;48.88;74469.38;4993426;27;103874;-83
2023/08/10 10:59:34;;;;;;;;;3.00;3.00;;;;;-143.90;48.74;74448.69;4991090;28;102151;-82
2023/08/10 11:02:04;;;;;;;;;3.00;3.00;;;;;-143.90;46.04;74436.28;5004716;28;102528;-83
2023/08/10 11:04:32;;;;;;;;;4.00;3.00;;;;;-143.90;46.97;74419.75;4992528;28;102299;-83
2023/08/10 11:07:00;;;;;;;;;4.00;4.00;;;;;-143.90;47.34;74428.03;4989671;27;103982;-84
2023/08/10 11:09:27;;;;;;;;;4.00;3.33;;;;;-143.90;47.05;74411.50;4998569;27;102114;-84
2023/08/10 11:11:54;;;;;;;;;2.67;2.67;;;;;-143.90;46.52;74425.97;5002098;27;102077;-82
2023/08/10 11:14:28;;;;;;;;;5.00;4.00;;;;;-143.90;45.15;74428.03;5002798;28;102271;-82
2023/08/10 11:16:55;;;;;;;;;7.00;6.00;;;;;-143.90;47.30;74471.44;4992460;28;104237;-80
2023/08/10 11:19:28;;;;;;;;;6.00;5.00;;;;;-143.90;44.83;74446.63;5000650;27;102349;-81
2023/08/10 11:21:56;;;;;;;;;6.67;5.67;;;;;-143.90;44.29;74477.63;5005247;27;101845;-82
2023/08/10 11:24:23;;;;;;;;;8.33;7.33;;;;;-143.90;45.33;74469.38;5003341;27;102178;-87
2023/08/10 11:26:51;;;;;;;;;4.00;4.00;;;;;-143.90;48.22;74448.69;5005604;27;104098;-84
2023/08/10 11:29:19;;;;;;;;;5.00;5.00;;;;;-143.90;44.24;74421.81;4980102;27;103784;-83